createdAt,value
2022-11-15T15:21:37.471Z,50.37
2022-11-15T15:23:39.757Z,57.22
2022-11-15T15:25:41.850Z,45.22
2022-11-15T15:27:43.823Z,120.18
2022-11-15T15:29:45.887Z,116.63
2022-11-15T15:31:47.878Z,125.05
2022-11-15T15:33:49.833Z,134.18
2022-11-15T15:35:51.809Z,142.55
2022-11-15T15:37:53.767Z,154.95
2022-11-15T15:39:55.743Z,162.30
2022-11-15T15:41:57.691Z,160.52
2022-11-15T15:43:59.755Z,172.82
2022-11-15T15:46:01.739Z,166.15
2022-11-15T15:48:03.721Z,171.45
2022-11-15T15:50:05.808Z,187.18
2022-11-15T15:52:07.749Z,192.50
2022-11-15T15:54:09.685Z,174.93
2022-11-15T15:56:11.881Z,181.63
2022-11-15T15:58:13.824Z,183.18
2022-11-15T16:00:15.791Z,184.30
2022-11-15T16:02:17.927Z,186.93
2022-11-15T16:04:19.869Z,207.63
2022-11-15T16:06:21.839Z,190.30
2022-11-15T16:08:23.887Z,188.57
2022-11-15T16:10:25.973Z,176.30
2022-11-15T16:12:28.095Z,185.23
2022-11-15T16:14:30.210Z,202.75
2022-11-15T16:16:32.155Z,182.27
2022-11-15T16:18:34.533Z,194.80
2022-11-15T16:20:36.887Z,199.70
2022-11-15T16:22:38.870Z,204.90
2022-11-15T16:24:40.827Z,203.90
2022-11-15T16:26:43.004Z,192.82
2022-11-15T16:28:44.956Z,191.27
2022-11-15T16:30:49.020Z,214.98
2022-11-15T16:32:54.508Z,192.25
2022-11-15T16:34:56.548Z,185.63
2022-11-15T16:36:59.450Z,202.43
2022-11-15T16:39:01.602Z,191.65
2022-11-15T16:41:03.622Z,204.90
2022-11-15T16:43:05.579Z,189.15
2022-11-15T16:45:07.648Z,185.25
2022-11-15T16:47:09.606Z,189.98
2022-11-15T16:49:11.564Z,202.63
2022-11-15T16:51:13.655Z,195.23
2022-11-15T16:53:15.603Z,214.60
2022-11-15T16:55:17.554Z,197.70
2022-11-15T16:57:19.606Z,213.18
2022-11-15T16:59:21.570Z,198.82
2022-11-15T17:01:23.568Z,234.13
2022-11-15T17:03:25.820Z,220.00
2022-11-15T17:05:27.784Z,256.25
2022-11-15T17:07:30.099Z,273.60
2022-11-15T17:09:32.195Z,301.65
2022-11-15T17:11:34.154Z,304.52
2022-11-15T17:13:36.102Z,319.10
2022-11-15T17:15:38.127Z,304.50
2022-11-15T17:17:40.114Z,257.63
2022-11-15T17:19:42.058Z,257.48
2022-11-15T17:21:44.168Z,228.48
2022-11-15T17:23:46.146Z,255.45
2022-11-15T17:25:48.083Z,245.32
2022-11-15T17:27:50.218Z,234.75
2022-11-15T17:29:52.164Z,250.32
2022-11-15T17:31:54.148Z,249.32
2022-11-15T17:33:56.335Z,241.32
2022-11-15T17:38:00.262Z,235.48
2022-11-15T17:40:02.324Z,253.77
2022-11-15T17:42:04.295Z,231.75
2022-11-15T17:44:06.330Z,275.27
2022-11-15T17:46:08.346Z,254.65
2022-11-15T17:48:10.744Z,290.15
2022-11-15T17:50:12.700Z,277.33
2022-11-15T17:52:14.770Z,273.92
2022-11-15T17:54:16.744Z,257.90
2022-11-15T17:56:18.690Z,303.10
2022-11-15T17:58:21.018Z,300.60
2022-11-15T18:00:22.954Z,315.45
2022-11-15T18:02:24.915Z,309.45
2022-11-15T18:04:26.915Z,347.38
2022-11-15T18:06:28.925Z,337.85
2022-11-15T18:08:30.894Z,347.05
2022-11-15T18:10:32.853Z,358.27
2022-11-15T18:12:34.792Z,318.65
2022-11-15T18:14:36.775Z,304.98
2022-11-15T18:16:38.857Z,315.90
2022-11-15T18:18:40.852Z,295.67
2022-11-15T18:20:42.948Z,306.85
2022-11-15T18:22:44.780Z,304.85
2022-11-15T18:24:46.728Z,318.00
2022-11-15T18:26:48.739Z,308.27
2022-11-15T18:28:50.855Z,303.48
2022-11-15T18:30:52.868Z,327.05
2022-11-15T18:32:55.034Z,320.98
2022-11-15T18:34:56.988Z,313.92
2022-11-15T18:36:58.973Z,319.63
2022-11-15T18:39:00.963Z,310.25
2022-11-15T18:41:03.071Z,321.80
2022-11-15T18:43:05.102Z,336.15
2022-11-15T18:45:07.075Z,318.08
2022-11-15T18:47:09.133Z,295.33
2022-11-15T18:49:11.141Z,318.20
2022-11-15T18:51:13.162Z,321.30
2022-11-15T18:53:15.108Z,308.40
2022-11-15T18:55:17.055Z,326.50
2022-11-15T18:57:19.011Z,335.40
2022-11-15T18:59:21.070Z,330.08
2022-11-15T19:01:23.141Z,304.88
2022-11-15T19:03:25.253Z,310.15
2022-11-15T19:05:27.248Z,341.23
2022-11-15T19:07:29.263Z,309.90
2022-11-15T19:09:31.381Z,319.10
2022-11-15T19:11:33.448Z,334.98
2022-11-15T19:13:35.567Z,340.90
2022-11-15T19:17:39.546Z,301.00
2022-11-15T19:19:41.533Z,318.33
2022-11-15T19:21:43.488Z,284.23
2022-11-15T19:23:45.523Z,297.13
2022-11-15T19:25:47.525Z,269.33
2022-11-15T19:29:51.774Z,249.00
2022-11-15T19:31:53.743Z,254.48
2022-11-15T19:33:55.690Z,262.75
2022-11-15T19:35:57.708Z,274.13
2022-11-15T19:37:59.738Z,261.50
2022-11-15T19:40:01.730Z,261.73
2022-11-15T19:42:03.803Z,259.98
2022-11-15T19:44:05.907Z,237.27
2022-11-15T19:46:07.855Z,278.02
2022-11-15T19:48:09.794Z,258.80
2022-11-15T19:50:11.845Z,244.00
2022-11-15T19:52:13.784Z,266.02
2022-11-15T19:54:15.818Z,245.02
2022-11-15T19:56:17.883Z,244.50
2022-11-15T19:58:19.858Z,267.10
2022-11-15T20:00:21.896Z,278.63
2022-11-15T20:02:23.867Z,276.83
2022-11-15T20:04:25.985Z,294.38
2022-11-15T20:06:28.136Z,286.27
2022-11-15T20:08:30.298Z,280.08
2022-11-15T20:12:34.322Z,267.08
2022-11-15T20:14:36.285Z,254.85
2022-11-15T20:16:38.276Z,260.65
2022-11-15T20:18:40.325Z,269.95
2022-11-15T20:20:42.263Z,259.55
2022-11-15T20:22:44.265Z,234.70
2022-11-15T20:24:46.396Z,239.80
2022-11-15T20:26:48.389Z,240.10
2022-11-15T20:28:50.376Z,211.25
2022-11-15T20:30:52.329Z,214.55
2022-11-15T20:32:54.280Z,220.65
2022-11-15T20:34:56.231Z,226.13
2022-11-15T20:36:58.205Z,222.57
2022-11-15T20:39:00.231Z,212.95
2022-11-15T20:41:02.197Z,233.70
2022-11-15T20:43:04.328Z,221.35
2022-11-15T20:45:06.433Z,213.55
2022-11-15T20:47:08.411Z,213.75
2022-11-15T20:49:10.522Z,235.32
2022-11-15T20:51:12.514Z,247.68
2022-11-15T20:53:14.480Z,220.80
2022-11-15T20:55:16.835Z,219.30
2022-11-15T20:57:18.794Z,230.15
2022-11-15T20:59:20.767Z,243.15
2022-11-15T21:01:22.916Z,219.15
2022-11-15T21:03:24.962Z,234.63
2022-11-15T21:05:26.962Z,242.75
2022-11-15T21:07:29.139Z,225.85
2022-11-15T21:09:31.114Z,218.50
2022-11-15T21:11:33.079Z,219.02
2022-11-15T21:13:35.050Z,235.40
2022-11-15T21:15:37.009Z,237.25
2022-11-15T21:17:39.010Z,232.90
2022-11-15T21:19:41.078Z,250.10
2022-11-15T21:21:43.047Z,229.32
2022-11-15T21:23:45.004Z,220.82
2022-11-15T21:25:47.059Z,219.65
2022-11-15T21:27:49.028Z,212.18
2022-11-15T21:29:51.004Z,216.90
2022-11-15T21:31:53.066Z,222.18
2022-11-15T21:33:55.053Z,211.75
2022-11-15T21:35:56.991Z,197.60
2022-11-15T21:37:59.171Z,217.00
2022-11-15T21:40:01.181Z,211.27
2022-11-15T21:42:03.137Z,220.95
2022-11-15T21:44:05.110Z,219.30
2022-11-15T21:46:07.060Z,233.20
2022-11-15T21:48:09.010Z,220.18
2022-11-15T21:50:10.969Z,212.25
2022-11-15T21:52:12.973Z,200.40
2022-11-15T21:54:14.935Z,189.02
2022-11-15T21:56:16.970Z,204.00
2022-11-15T21:58:18.927Z,197.55
2022-11-15T22:00:20.887Z,199.60
2022-11-15T22:02:22.966Z,201.43
2022-11-15T22:04:24.949Z,184.27
2022-11-15T22:06:26.963Z,179.38
2022-11-15T22:08:29.117Z,236.63
2022-11-15T22:10:31.115Z,203.20
2022-11-15T22:12:33.055Z,203.82
2022-11-15T22:14:35.107Z,204.13
2022-11-15T22:16:37.094Z,184.25
2022-11-15T22:18:39.366Z,196.88
2022-11-15T22:22:47.373Z,190.07
2022-11-15T22:24:49.303Z,200.57
2022-11-15T22:26:51.388Z,181.10
2022-11-15T22:28:53.333Z,188.68
2022-11-15T22:30:55.288Z,187.55
2022-11-15T22:32:57.427Z,178.90
2022-11-15T22:34:59.377Z,182.80
2022-11-15T22:39:23.357Z,200.70
2022-11-15T22:41:25.299Z,193.18
2022-11-15T22:43:27.317Z,202.63
2022-11-15T22:45:29.331Z,198.75
2022-11-15T22:47:31.272Z,229.70
2022-11-15T22:49:33.326Z,206.00
2022-11-15T22:51:35.358Z,192.98
2022-11-15T22:53:37.311Z,200.00
2022-11-15T22:55:39.282Z,198.68
2022-11-15T22:57:41.350Z,200.35
2022-11-15T22:59:43.307Z,178.85
2022-11-15T23:01:45.267Z,183.93
2022-11-15T23:03:47.340Z,199.85
2022-11-15T23:05:49.311Z,178.10
2022-11-15T23:07:51.278Z,180.23
2022-11-15T23:09:53.362Z,168.48
2022-11-15T23:11:55.311Z,160.40
2022-11-15T23:13:57.271Z,168.55
2022-11-15T23:15:59.320Z,170.80
2022-11-15T23:18:01.279Z,161.55
2022-11-15T23:20:22.134Z,170.38
2022-11-15T23:22:25.284Z,155.95
2022-11-15T23:24:27.234Z,166.75
2022-11-15T23:26:29.192Z,156.75
2022-11-15T23:28:31.571Z,145.95
2022-11-15T23:30:33.721Z,155.40
2022-11-15T23:32:35.655Z,150.00
2022-11-15T23:34:37.704Z,161.93
2022-11-15T23:36:39.671Z,151.63
2022-11-15T23:38:41.619Z,155.32
2022-11-15T23:40:43.582Z,154.52
2022-11-15T23:42:45.549Z,166.15
2022-11-15T23:44:47.479Z,149.20
2022-11-15T23:46:49.563Z,167.95
2022-11-15T23:48:51.514Z,173.07
2022-11-15T23:50:53.639Z,170.30
2022-11-15T23:52:55.650Z,176.90
2022-11-15T23:54:57.598Z,172.82
2022-11-15T23:56:59.532Z,177.63
2022-11-15T23:59:01.503Z,196.18
